Time;durP1;ratioP1;P1;durP2;ratioP2;P2;SDS_P1;SDS_P2;PMS_P1;PMS_P2;Temp;Humidity;BMP_temperature;BMP_pressure;BME280_temperature;BME280_humidity;BME280_pressure;Samples;Min_cycle;Max_cycle;Signal;HPM_P1;HPM_P2
2022/10/08 00:00:50;;;;;;;;;;;15.60;52.90;;;;;;5027030;28;19913;-90
2022/10/08 00:03:16;;;;;;;;;;;15.60;53.00;;;;;;5036021;28;19931;-88
2022/10/08 00:05:42;;;;;;;;;;;15.60;53.00;;;;;;5036893;28;19912;-89
2022/10/08 00:08:08;;;;;;;;;;;15.60;53.20;;;;;;5056120;28;20397;-85
2022/10/08 00:10:34;;;;;;;;;;;15.60;53.20;;;;;;5057814;28;20004;-85
2022/10/08 00:12:59;;;;;;;;;;;15.60;53.10;;;;;;5054025;28;19971;-87
2022/10/08 00:15:25;;;;;;;;;;;15.70;53.10;;;;;;5034710;28;19917;-89
2022/10/08 00:17:51;;;;;;;;;;;15.70;53.00;;;;;;5036525;28;19924;-87
2022/10/08 00:20:17;;;;;;;;;;;15.70;53.30;;;;;;5055461;28;19913;-87
2022/10/08 00:22:42;;;;;;;;;;;15.70;53.40;;;;;;5045348;28;20509;-90
2022/10/08 00:25:09;;;;;;;;;;;15.80;53.60;;;;;;5052518;28;19931;-88
2022/10/08 00:27:34;;;;;;;;;;;15.80;53.50;;;;;;5036874;28;19925;-88
2022/10/08 00:30:00;;;;;;;;;;;15.80;53.40;;;;;;5038564;28;19909;-90
2022/10/08 00:32:26;;;;;;;;;;;15.90;53.20;;;;;;5055016;28;19928;-89
2022/10/08 00:34:52;;;;;;;;;;;15.90;53.40;;;;;;5052982;28;19913;-87
2022/10/08 00:37:17;;;;;;;;;;;16.00;53.30;;;;;;5035679;28;20015;-90
2022/10/08 00:39:43;;;;;;;;;;;16.00;53.30;;;;;;5031905;28;19913;-90
2022/10/08 00:42:10;;;;;;;;;;;16.10;53.10;;;;;;5015710;28;19935;-89
2022/10/08 00:44:53;;;;;;;;;;;16.10;53.00;;;;;;5050370;28;19963;-90
2022/10/08 00:47:23;;;;;;;;;;;16.20;52.90;;;;;;5036034;28;19994;-85
2022/10/08 00:49:50;;;;;;;;;;;16.20;52.80;;;;;;5052741;28;19916;-88
2022/10/08 00:52:16;;;;;;;;;;;16.10;52.70;;;;;;5018149;28;19960;-89
2022/10/08 00:54:42;;;;;;;;;;;16.20;52.50;;;;;;5052458;28;20007;-88
2022/10/08 00:57:07;;;;;;;;;;;16.10;52.40;;;;;;5053840;28;19952;-85
2022/10/08 00:59:34;;;;;;;;;;;16.10;52.30;;;;;;5053270;28;19913;-88
2022/10/08 01:01:59;;;;;;;;;;;16.10;52.30;;;;;;5053502;28;19974;-90
2022/10/08 01:04:25;;;;;;;;;;;16.10;52.30;;;;;;5033343;28;19956;-89
2022/10/08 01:06:54;;;;;;;;;;;16.00;52.40;;;;;;5035902;28;19955;-85
2022/10/08 01:09:28;;;;;;;;;;;16.00;52.50;;;;;;5051807;28;19916;-89
2022/10/08 01:12:09;;;;;;;;;;;16.00;52.50;;;;;;5051922;28;20023;-87
2022/10/08 01:14:40;;;;;;;;;;;16.00;52.80;;;;;;5037106;28;19913;-85
2022/10/08 01:17:18;;;;;;;;;;;16.00;52.60;;;;;;5029299;28;20251;-88
2022/10/08 01:20:03;;;;;;;;;;;15.90;52.80;;;;;;5043106;28;20110;-87
2022/10/08 01:22:35;;;;;;;;;;;15.90;52.60;;;;;;5033628;28;20003;-86
2022/10/08 01:27:59;;;;;;;;;;;15.80;52.80;;;;;;5050639;28;20014;-88
2022/10/08 01:30:25;;;;;;;;;;;15.80;52.80;;;;;;5051808;28;19925;-86
2022/10/08 01:33:01;;;;;;;;;;;15.80;52.80;;;;;;5034373;28;19939;-86
2022/10/08 01:35:30;;;;;;;;;;;15.80;52.80;;;;;;5050446;28;19920;-87
2022/10/08 01:38:02;;;;;;;;;;;15.80;52.80;;;;;;5032911;28;19917;-89
2022/10/08 01:40:29;;;;;;;;;;;15.80;52.80;;;;;;5034963;28;19913;-87
2022/10/08 01:42:57;;;;;;;;;;;15.70;53.00;;;;;;5056636;28;19953;-86
2022/10/08 01:45:30;;;;;;;;;;;15.70;52.90;;;;;;5052206;28;19920;-86
2022/10/08 01:47:57;;;;;;;;;;;15.70;52.80;;;;;;5039794;28;19923;-86
2022/10/08 01:50:33;;;;;;;;;;;15.70;52.80;;;;;;5054756;28;19912;-86
2022/10/08 01:53:02;;;;;;;;;;;15.70;52.80;;;;;;5052684;28;20279;-87
2022/10/08 01:55:30;;;;;;;;;;;15.70;52.80;;;;;;5039688;28;19912;-89
2022/10/08 01:57:58;;;;;;;;;;;15.70;52.80;;;;;;5032622;28;20330;-87
2022/10/08 02:00:24;;;;;;;;;;;15.60;52.90;;;;;;5033054;28;20347;-86
2022/10/08 02:02:49;;;;;;;;;;;15.60;52.90;;;;;;5051023;28;19917;-89
2022/10/08 02:05:16;;;;;;;;;;;15.50;53.00;;;;;;5031484;28;20355;-87
2022/10/08 02:07:42;;;;;;;;;;;15.60;52.90;;;;;;5033292;28;20007;-89
2022/10/08 02:10:07;;;;;;;;;;;15.60;52.80;;;;;;5050044;28;19912;-89
2022/10/08 02:12:33;;;;;;;;;;;15.50;52.80;;;;;;5051798;28;20302;-85
2022/10/08 02:14:59;;;;;;;;;;;15.50;53.00;;;;;;5022377;28;19967;-88
2022/10/08 02:17:35;;;;;;;;;;;15.50;53.00;;;;;;5028461;28;20337;-88
2022/10/08 02:20:04;;;;;;;;;;;15.50;53.00;;;;;;5036529;28;19912;-87
2022/10/08 02:22:33;;;;;;;;;;;15.50;52.80;;;;;;5032036;28;19921;-89
2022/10/08 02:25:09;;;;;;;;;;;15.40;52.90;;;;;;4985678;28;1845422;-88
2022/10/08 02:27:42;;;;;;;;;;;15.40;53.10;;;;;;5027876;28;20368;-89
2022/10/08 02:30:09;;;;;;;;;;;15.40;53.30;;;;;;5046300;28;19958;-85
2022/10/08 02:32:37;;;;;;;;;;;15.50;53.40;;;;;;5034085;28;20458;-85
2022/10/08 02:35:12;;;;;;;;;;;15.50;53.20;;;;;;5051005;28;19920;-87
2022/10/08 02:37:46;;;;;;;;;;;15.50;53.40;;;;;;5033223;28;19974;-89
2022/10/08 02:40:13;;;;;;;;;;;15.50;53.50;;;;;;5033797;28;20367;-88
2022/10/08 02:42:41;;;;;;;;;;;15.70;53.50;;;;;;5054101;28;19913;-88
2022/10/08 02:45:10;;;;;;;;;;;15.80;53.50;;;;;;5030348;28;19914;-88
2022/10/08 02:47:37;;;;;;;;;;;15.90;53.40;;;;;;5031615;28;19960;-87
2022/10/08 02:50:06;;;;;;;;;;;16.00;53.40;;;;;;5035241;28;19920;-85
2022/10/08 02:52:38;;;;;;;;;;;16.20;53.40;;;;;;5032555;28;19962;-87
2022/10/08 02:55:05;;;;;;;;;;;16.20;53.30;;;;;;5029362;28;19992;-89
2022/10/08 02:57:35;;;;;;;;;;;16.30;53.20;;;;;;5038630;28;19963;-89
2022/10/08 03:00:02;;;;;;;;;;;16.30;53.00;;;;;;5039376;28;19988;-89
2022/10/08 03:02:36;;;;;;;;;;;16.40;52.90;;;;;;5033880;28;19920;-89
2022/10/08 03:05:04;;;;;;;;;;;16.50;52.80;;;;;;5050390;28;19938;-89
2022/10/08 03:07:31;;;;;;;;;;;16.60;52.70;;;;;;5048701;28;20051;-88
2022/10/08 03:09:57;;;;;;;;;;;16.70;52.60;;;;;;5033002;28;19920;-89
2022/10/08 03:12:23;;;;;;;;;;;16.70;53.40;;;;;;5050157;28;20070;-88
2022/10/08 03:14:51;;;;;;;;;;;16.60;54.10;;;;;;5032032;28;19917;-87
2022/10/08 03:17:21;;;;;;;;;;;16.60;54.80;;;;;;5032318;28;19920;-89
2022/10/08 03:19:47;;;;;;;;;;;16.50;55.20;;;;;;5032961;28;20007;-90
2022/10/08 03:22:12;;;;;;;;;;;16.40;55.40;;;;;;5038695;28;19944;-89
2022/10/08 03:24:38;;;;;;;;;;;16.40;55.70;;;;;;5023760;28;20386;-90
2022/10/08 03:27:04;;;;;;;;;;;16.40;55.90;;;;;;5036714;28;19913;-88
2022/10/08 03:29:29;;;;;;;;;;;16.30;56.20;;;;;;5053485;28;19920;-89
2022/10/08 03:31:55;;;;;;;;;;;16.40;56.50;;;;;;5054844;28;19925;-91
2022/10/08 03:34:23;;;;;;;;;;;16.30;56.80;;;;;;5038104;28;20411;-88
2022/10/08 03:36:48;;;;;;;;;;;16.40;56.90;;;;;;5036827;28;19917;-88
2022/10/08 03:39:14;;;;;;;;;;;16.50;57.00;;;;;;5038367;28;19936;-90
2022/10/08 03:41:40;;;;;;;;;;;16.50;57.20;;;;;;5038464;28;19897;-88
2022/10/08 03:44:09;;;;;;;;;;;16.60;57.20;;;;;;5036215;28;19913;-86
2022/10/08 03:46:35;;;;;;;;;;;16.60;57.20;;;;;;5055361;28;19948;-88
2022/10/08 03:49:01;;;;;;;;;;;16.70;57.20;;;;;;5037121;28;19913;-86
2022/10/08 03:51:27;;;;;;;;;;;16.70;57.30;;;;;;5036990;28;19921;-88
2022/10/08 03:53:52;;;;;;;;;;;16.70;57.30;;;;;;5055032;28;19916;-88
2022/10/08 03:56:19;;;;;;;;;;;16.70;57.30;;;;;;5054745;28;19920;-86
2022/10/08 03:58:45;;;;;;;;;;;16.70;57.20;;;;;;5036814;28;20379;-90
2022/10/08 04:01:12;;;;;;;;;;;16.70;57.20;;;;;;5054491;28;19954;-89
2022/10/08 04:03:37;;;;;;;;;;;16.80;57.20;;;;;;5038399;28;19974;-89
2022/10/08 04:06:03;;;;;;;;;;;16.70;57.40;;;;;;5037094;28;20552;-88
2022/10/08 04:08:29;;;;;;;;;;;16.80;57.30;;;;;;5054897;28;19924;-87
2022/10/08 04:10:55;;;;;;;;;;;16.80;57.30;;;;;;5054145;28;19927;-87
2022/10/08 04:13:21;;;;;;;;;;;16.80;57.30;;;;;;5055009;28;20379;-88
2022/10/08 04:15:47;;;;;;;;;;;16.90;57.30;;;;;;5053693;28;19909;-88
2022/10/08 04:18:13;;;;;;;;;;;16.90;57.40;;;;;;5046524;28;19928;-87
2022/10/08 04:20:39;;;;;;;;;;;17.00;57.40;;;;;;5033183;28;19913;-85
2022/10/08 04:23:05;;;;;;;;;;;17.10;57.50;;;;;;5032811;28;19939;-89
2022/10/08 04:25:31;;;;;;;;;;;17.10;57.40;;;;;;5034191;28;19921;-85
2022/10/08 04:27:57;;;;;;;;;;;17.20;57.30;;;;;;5034801;28;19917;-90
2022/10/08 04:30:23;;;;;;;;;;;17.30;57.20;;;;;;5037489;28;19944;-88
2022/10/08 04:32:49;;;;;;;;;;;17.30;56.90;;;;;;5035568;28;20414;-89
2022/10/08 04:35:14;;;;;;;;;;;17.30;56.90;;;;;;5035320;28;19916;-89
2022/10/08 04:37:40;;;;;;;;;;;17.40;56.90;;;;;;5053406;28;19913;-85
2022/10/08 04:40:06;;;;;;;;;;;17.40;56.90;;;;;;5054209;28;20261;-87
2022/10/08 04:42:31;;;;;;;;;;;17.40;56.90;;;;;;5032644;28;20379;-87
2022/10/08 04:44:57;;;;;;;;;;;17.50;56.90;;;;;;5041738;28;19913;-89
2022/10/08 04:47:22;;;;;;;;;;;17.50;56.90;;;;;;5036544;28;19927;-86
2022/10/08 04:49:48;;;;;;;;;;;17.50;56.80;;;;;;5040309;28;19990;-87
2022/10/08 04:52:16;;;;;;;;;;;17.50;56.80;;;;;;5034083;28;20016;-90
2022/10/08 04:54:41;;;;;;;;;;;17.40;56.90;;;;;;5053558;28;19996;-87
2022/10/08 04:57:07;;;;;;;;;;;17.30;57.10;;;;;;5037351;28;19920;-87
2022/10/08 04:59:33;;;;;;;;;;;17.30;57.10;;;;;;5033506;28;19920;-86
2022/10/08 05:01:58;;;;;;;;;;;17.30;57.10;;;;;;5055677;28;19973;-85
2022/10/08 05:04:24;;;;;;;;;;;17.30;57.20;;;;;;5060039;28;19913;-88
2022/10/08 05:06:50;;;;;;;;;;;17.30;57.10;;;;;;5056156;28;19998;-87
2022/10/08 05:09:16;;;;;;;;;;;17.30;57.20;;;;;;5037165;28;19916;-89
2022/10/08 05:11:41;;;;;;;;;;;17.30;57.10;;;;;;5053811;28;20325;-89
2022/10/08 05:14:08;;;;;;;;;;;17.40;57.20;;;;;;5052103;28;19912;-85
2022/10/08 05:16:35;;;;;;;;;;;17.40;57.20;;;;;;5033243;28;19921;-89
2022/10/08 05:19:02;;;;;;;;;;;17.40;57.20;;;;;;5041015;28;19920;-88
2022/10/08 05:21:29;;;;;;;;;;;17.30;57.10;;;;;;5065867;28;19999;-89
2022/10/08 05:23:54;;;;;;;;;;;17.30;57.10;;;;;;5062388;28;19917;-90
2022/10/08 05:26:22;;;;;;;;;;;17.30;57.30;;;;;;5035536;28;19919;-88
2022/10/08 05:28:52;;;;;;;;;;;17.20;57.50;;;;;;5038222;28;19913;-89
2022/10/08 05:31:17;;;;;;;;;;;17.10;57.60;;;;;;5051701;28;19921;-89
2022/10/08 05:33:43;;;;;;;;;;;17.00;57.80;;;;;;5051959;28;19916;-89
2022/10/08 05:36:13;;;;;;;;;;;16.90;58.00;;;;;;5052100;28;19959;-88
2022/10/08 05:38:42;;;;;;;;;;;16.90;58.40;;;;;;5050943;28;19921;-89
2022/10/08 05:41:15;;;;;;;;;;;16.80;58.70;;;;;;5054423;28;19913;-88
2022/10/08 05:43:41;;;;;;;;;;;16.80;59.10;;;;;;5051241;28;19917;-88
2022/10/08 05:46:08;;;;;;;;;;;16.80;59.20;;;;;;5053798;28;19924;-89
2022/10/08 05:48:33;;;;;;;;;;;16.80;59.40;;;;;;5052526;28;20276;-89
2022/10/08 05:51:05;;;;;;;;;;;16.80;59.50;;;;;;5037890;28;20391;-89
2022/10/08 05:53:32;;;;;;;;;;;16.80;59.60;;;;;;5032969;28;19936;-88
2022/10/08 05:55:59;;;;;;;;;;;16.80;59.80;;;;;;5051853;28;19913;-89
2022/10/08 05:58:25;;;;;;;;;;;16.80;59.90;;;;;;5050102;28;19917;-89
2022/10/08 06:01:00;;;;;;;;;;;16.80;60.00;;;;;;5032296;28;20395;-88
2022/10/08 06:03:26;;;;;;;;;;;16.90;60.00;;;;;;5049219;28;19917;-89
2022/10/08 06:05:52;;;;;;;;;;;16.90;60.10;;;;;;5032575;28;20323;-88
2022/10/08 06:08:18;;;;;;;;;;;17.00;60.20;;;;;;5049831;28;20356;-88
2022/10/08 06:10:50;;;;;;;;;;;17.00;60.60;;;;;;5032200;28;20003;-88
2022/10/08 06:13:16;;;;;;;;;;;17.00;60.90;;;;;;5049485;28;19939;-89
2022/10/08 06:15:42;;;;;;;;;;;17.00;61.20;;;;;;5051236;28;19939;-87
2022/10/08 06:18:09;;;;;;;;;;;16.90;61.40;;;;;;5050107;28;19944;-89
2022/10/08 06:20:37;;;;;;;;;;;17.00;61.70;;;;;;5051197;28;19951;-85
2022/10/08 06:23:03;;;;;;;;;;;17.00;61.90;;;;;;5031218;28;19909;-86
2022/10/08 06:25:28;;;;;;;;;;;17.00;62.00;;;;;;5031729;28;19925;-86
2022/10/08 06:27:54;;;;;;;;;;;17.10;62.20;;;;;;5031144;28;19913;-86
2022/10/08 06:30:19;;;;;;;;;;;17.20;62.30;;;;;;5049330;28;19916;-86
2022/10/08 06:32:45;;;;;;;;;;;17.20;62.40;;;;;;5049124;28;19912;-86
2022/10/08 06:35:11;;;;;;;;;;;17.30;62.40;;;;;;5049765;28;19936;-86
2022/10/08 06:37:38;;;;;;;;;;;17.40;62.50;;;;;;5049425;28;19921;-86
2022/10/08 06:40:04;;;;;;;;;;;17.50;62.60;;;;;;5048803;28;19950;-86
2022/10/08 06:42:30;;;;;;;;;;;17.50;62.60;;;;;;5050429;28;20324;-89
2022/10/08 06:44:56;;;;;;;;;;;17.70;62.50;;;;;;5050647;28;19936;-89
2022/10/08 06:47:21;;;;;;;;;;;17.80;62.40;;;;;;5033291;28;19913;-89
2022/10/08 06:49:47;;;;;;;;;;;17.80;62.40;;;;;;5052115;28;19919;-86
2022/10/08 06:52:13;;;;;;;;;;;17.80;62.40;;;;;;5050565;28;20291;-88
2022/10/08 06:54:39;;;;;;;;;;;18.00;62.40;;;;;;5051490;28;20334;-87
2022/10/08 06:57:04;;;;;;;;;;;18.00;62.50;;;;;;5032942;28;19921;-88
2022/10/08 06:59:31;;;;;;;;;;;18.10;62.30;;;;;;5031015;28;19920;-89
2022/10/08 07:01:57;;;;;;;;;;;18.10;62.20;;;;;;5045896;28;19924;-89
2022/10/08 07:04:25;;;;;;;;;;;18.20;62.30;;;;;;5040002;28;20263;-88
2022/10/08 07:06:50;;;;;;;;;;;18.30;62.40;;;;;;5044352;28;19917;-86
2022/10/08 07:09:16;;;;;;;;;;;18.30;62.10;;;;;;5048872;28;19919;-88
2022/10/08 07:11:42;;;;;;;;;;;18.30;62.10;;;;;;5032896;28;20311;-87
2022/10/08 07:14:07;;;;;;;;;;;18.30;62.10;;;;;;5034611;28;19987;-89
2022/10/08 07:16:33;;;;;;;;;;;18.40;61.90;;;;;;5037460;28;19939;-88
2022/10/08 07:18:59;;;;;;;;;;;18.40;61.80;;;;;;5032407;28;19913;-90
2022/10/08 07:21:28;;;;;;;;;;;18.40;61.80;;;;;;5048422;28;20430;-90
2022/10/08 07:23:57;;;;;;;;;;;18.40;61.90;;;;;;5049746;28;19924;-88
2022/10/08 07:26:24;;;;;;;;;;;18.40;61.80;;;;;;5048702;28;20421;-89
2022/10/08 07:28:51;;;;;;;;;;;18.40;61.80;;;;;;5047465;28;19916;-91
2022/10/08 07:31:18;;;;;;;;;;;18.40;62.10;;;;;;5035016;28;19932;-89
2022/10/08 07:33:48;;;;;;;;;;;18.40;62.00;;;;;;5033268;28;19917;-90
2022/10/08 07:36:15;;;;;;;;;;;18.50;62.10;;;;;;5016748;28;20347;-89
2022/10/08 07:38:41;;;;;;;;;;;18.50;62.10;;;;;;4969203;28;20816;-87
2022/10/08 07:41:07;;;;;;;;;;;18.60;61.90;;;;;;5000667;28;19924;-91
2022/10/08 07:43:33;;;;;;;;;;;18.70;62.00;;;;;;4999610;28;19912;-90
2022/10/08 07:45:59;;;;;;;;;;;18.70;61.90;;;;;;5021627;28;19971;-87
2022/10/08 07:48:24;;;;;;;;;;;18.70;61.90;;;;;;5014722;28;19956;-90
2022/10/08 07:50:50;;;;;;;;;;;18.80;62.30;;;;;;5054267;28;20039;-88
2022/10/08 07:53:16;;;;;;;;;;;18.80;62.70;;;;;;5031117;28;19947;-91
2022/10/08 07:55:45;;;;;;;;;;;19.00;63.10;;;;;;5053178;28;19922;-92
2022/10/08 07:58:11;;;;;;;;;;;19.10;63.20;;;;;;5031543;28;20413;-88
2022/10/08 08:00:38;;;;;;;;;;;19.30;63.30;;;;;;5053133;28;19920;-90
2022/10/08 08:03:03;;;;;;;;;;;19.60;63.50;;;;;;5054636;28;19909;-91
2022/10/08 08:05:32;;;;;;;;;;;19.80;63.20;;;;;;5035782;28;19919;-87
2022/10/08 08:07:58;;;;;;;;;;;20.00;62.80;;;;;;5049328;28;20686;-90
2022/10/08 08:10:24;;;;;;;;;;;20.20;62.80;;;;;;5033387;28;19940;-91
2022/10/08 08:12:50;;;;;;;;;;;20.30;61.90;;;;;;5035290;28;19940;-92
2022/10/08 08:15:16;;;;;;;;;;;20.40;61.30;;;;;;5053984;28;19913;-88
2022/10/08 08:17:41;;;;;;;;;;;20.40;60.90;;;;;;5056247;28;20011;-87
2022/10/08 08:20:07;;;;;;;;;;;20.40;60.80;;;;;;5051994;28;19920;-88
2022/10/08 08:22:33;;;;;;;;;;;20.50;60.70;;;;;;5056653;28;20048;-89
2022/10/08 08:24:58;;;;;;;;;;;20.50;60.70;;;;;;5057692;28;19951;-89
2022/10/08 08:27:24;;;;;;;;;;;20.50;60.60;;;;;;5053177;28;19920;-89
2022/10/08 08:29:49;;;;;;;;;;;20.50;60.30;;;;;;5031090;28;19920;-89
2022/10/08 08:32:15;;;;;;;;;;;20.60;60.00;;;;;;5056265;28;20379;-89
2022/10/08 08:34:41;;;;;;;;;;;20.60;59.80;;;;;;5057733;28;19913;-88
2022/10/08 08:37:07;;;;;;;;;;;20.70;59.70;;;;;;5036887;28;19916;-89
2022/10/08 08:39:32;;;;;;;;;;;20.80;60.40;;;;;;5050524;28;19923;-89
2022/10/08 08:42:27;;;;;;;;;;;21.10;60.10;;;;;;5051001;28;19918;-90
2022/10/08 08:44:56;;;;;;;;;;;21.10;59.20;;;;;;5052089;28;19913;-90
2022/10/08 08:47:43;;;;;;;;;;;21.00;58.80;;;;;;5056970;28;19916;-90
2022/10/08 08:50:21;;;;;;;;;;;20.90;58.40;;;;;;5050645;28;19913;-89
2022/10/08 08:52:46;;;;;;;;;;;20.90;60.20;;;;;;5034551;28;19928;-90
2022/10/08 08:55:20;;;;;;;;;;;21.40;63.00;;;;;;5044152;28;19917;-88
2022/10/08 08:57:45;;;;;;;;;;;21.90;62.20;;;;;;5070807;28;21118;-90
2022/10/08 09:00:15;;;;;;;;;;;22.20;61.70;;;;;;5067459;28;20039;-87
2022/10/08 09:02:56;;;;;;;;;;;22.30;59.90;;;;;;5055295;28;20325;-90
2022/10/08 09:05:23;;;;;;;;;;;22.50;59.60;;;;;;5039054;28;19917;-87
2022/10/08 09:08:04;;;;;;;;;;;23.00;61.30;;;;;;5057367;28;19916;-88
2022/10/08 09:10:53;;;;;;;;;;;23.50;61.40;;;;;;5035985;28;19943;-89
2022/10/08 09:13:21;;;;;;;;;;;24.00;61.10;;;;;;5047305;28;20022;-89
2022/10/08 09:15:46;;;;;;;;;;;24.50;60.90;;;;;;5036590;28;19917;-88
2022/10/08 09:18:13;;;;;;;;;;;24.80;57.20;;;;;;5050980;28;19982;-87
2022/10/08 09:20:39;;;;;;;;;;;25.00;56.20;;;;;;5036219;28;19968;-87
2022/10/08 09:23:13;;;;;;;;;;;25.30;55.60;;;;;;5053055;28;20299;-88
2022/10/08 09:25:40;;;;;;;;;;;25.70;56.70;;;;;;5058042;28;19928;-87
2022/10/08 09:28:06;;;;;;;;;;;26.20;56.60;;;;;;5048193;28;19917;-89
2022/10/08 09:30:39;;;;;;;;;;;26.80;55.30;;;;;;5051893;28;19967;-89
2022/10/08 09:33:17;;;;;;;;;;;27.10;53.60;;;;;;5054355;28;20414;-89
2022/10/08 09:35:47;;;;;;;;;;;27.40;52.60;;;;;;5031645;28;20447;-89
2022/10/08 09:38:21;;;;;;;;;;;27.80;51.90;;;;;;5036291;28;19916;-89
2022/10/08 09:41:07;;;;;;;;;;;28.20;47.90;;;;;;5033336;28;20176;-89
2022/10/08 09:43:33;;;;;;;;;;;28.40;47.10;;;;;;5035336;28;19917;-90
2022/10/08 09:46:01;;;;;;;;;;;28.60;45.50;;;;;;5036049;28;19999;-90
2022/10/08 09:48:28;;;;;;;;;;;28.90;45.70;;;;;;5033509;28;19916;-89
2022/10/08 09:51:02;;;;;;;;;;;29.30;46.70;;;;;;5054894;28;19917;-88
2022/10/08 09:53:31;;;;;;;;;;;29.70;46.60;;;;;;5053069;28;19963;-90
2022/10/08 09:55:58;;;;;;;;;;;30.20;46.00;;;;;;5052825;28;20413;-90
2022/10/08 09:58:24;;;;;;;;;;;30.30;43.50;;;;;;5050995;28;19913;-89
2022/10/08 10:01:01;;;;;;;;;;;30.20;42.60;;;;;;5034597;28;20030;-88
2022/10/08 10:03:26;;;;;;;;;;;29.90;42.10;;;;;;5034600;28;19935;-88
2022/10/08 10:05:53;;;;;;;;;;;29.70;42.60;;;;;;5034205;28;20291;-88
2022/10/08 10:08:38;;;;;;;;;;;29.30;42.70;;;;;;5055582;28;19920;-87
2022/10/08 10:11:04;;;;;;;;;;;29.00;43.20;;;;;;5051170;28;19963;-89
2022/10/08 10:13:35;;;;;;;;;;;28.70;42.20;;;;;;5051228;28;20316;-88
2022/10/08 10:16:03;;;;;;;;;;;28.30;43.30;;;;;;5033250;28;19913;-88
2022/10/08 10:18:32;;;;;;;;;;;28.00;42.50;;;;;;5048998;28;19958;-89
2022/10/08 10:21:00;;;;;;;;;;;27.50;42.20;;;;;;5033685;28;19913;-88
2022/10/08 10:23:29;;;;;;;;;;;27.20;43.70;;;;;;5050750;28;19917;-87
2022/10/08 10:25:58;;;;;;;;;;;26.80;44.50;;;;;;5034260;28;20438;-88
2022/10/08 10:28:29;;;;;;;;;;;26.60;45.20;;;;;;5046332;28;19940;-89
2022/10/08 10:31:08;;;;;;;;;;;26.80;45.00;;;;;;5054312;28;19921;-88
2022/10/08 10:33:40;;;;;;;;;;;27.30;45.50;;;;;;5030769;28;19945;-91
2022/10/08 10:36:08;;;;;;;;;;;28.00;44.70;;;;;;5037055;28;19921;-90
2022/10/08 10:38:54;;;;;;;;;;;28.50;42.30;;;;;;5052468;28;19960;-89
2022/10/08 10:41:30;;;;;;;;;;;28.80;41.90;;;;;;5050086;28;19913;-92
2022/10/08 10:43:59;;;;;;;;;;;29.10;40.50;;;;;;5051067;28;19959;-90
2022/10/08 10:46:29;;;;;;;;;;;29.40;39.60;;;;;;5033859;28;19935;-92
2022/10/08 10:48:55;;;;;;;;;;;29.70;38.00;;;;;;5046338;28;20336;-91
2022/10/08 10:51:41;;;;;;;;;;;29.80;37.80;;;;;;5032159;28;20063;-90
2022/10/08 10:54:20;;;;;;;;;;;29.50;36.30;;;;;;5050224;28;19913;-88
2022/10/08 10:56:50;;;;;;;;;;;28.90;36.40;;;;;;5050591;28;19921;-88
2022/10/08 10:59:28;;;;;;;;;;;28.30;35.60;;;;;;5046761;28;20098;-88
2022/10/08 11:01:59;;;;;;;;;;;27.80;35.80;;;;;;5035072;28;19917;-91
2022/10/08 11:04:34;;;;;;;;;;;27.30;36.50;;;;;;5052299;28;20055;-89
2022/10/08 11:07:05;;;;;;;;;;;27.00;37.10;;;;;;5052575;28;19986;-91
2022/10/08 11:09:41;;;;;;;;;;;26.70;37.70;;;;;;5030231;28;20440;-88
2022/10/08 11:12:19;;;;;;;;;;;26.30;38.10;;;;;;5036389;28;20398;-88
2022/10/08 11:14:51;;;;;;;;;;;26.40;38.80;;;;;;5050133;28;19917;-87
2022/10/08 11:17:30;;;;;;;;;;;26.50;38.90;;;;;;5035105;28;19913;-91
2022/10/08 11:19:56;;;;;;;;;;;26.50;38.50;;;;;;5032702;28;19920;-89
2022/10/08 11:22:36;;;;;;;;;;;26.90;38.20;;;;;;5052830;28;19913;-89
2022/10/08 11:25:05;;;;;;;;;;;27.50;37.70;;;;;;5038762;28;19917;-90
2022/10/08 11:27:40;;;;;;;;;;;28.00;35.60;;;;;;5050965;28;19913;-89
2022/10/08 11:30:13;;;;;;;;;;;28.20;34.70;;;;;;5038326;28;20276;-89
2022/10/08 11:32:40;;;;;;;;;;;28.40;34.50;;;;;;5033828;28;19936;-87
2022/10/08 11:35:05;;;;;;;;;;;28.20;33.70;;;;;;5030826;28;19920;-92
2022/10/08 11:37:33;;;;;;;;;;;27.90;33.70;;;;;;5045894;28;19924;-89
2022/10/08 11:40:02;;;;;;;;;;;27.70;34.10;;;;;;5042206;28;19909;-91
2022/10/08 11:42:32;;;;;;;;;;;27.40;35.30;;;;;;5049743;28;20294;-88
2022/10/08 11:45:17;;;;;;;;;;;26.80;37.70;;;;;;5050202;28;20270;-87
2022/10/08 11:47:47;;;;;;;;;;;26.10;39.40;;;;;;5051579;28;19970;-91
2022/10/08 11:50:30;;;;;;;;;;;25.70;41.10;;;;;;5049330;28;19935;-88
2022/10/08 11:52:58;;;;;;;;;;;25.70;41.30;;;;;;5055170;28;20372;-92
2022/10/08 11:55:25;;;;;;;;;;;25.80;41.00;;;;;;5039902;28;19912;-89
2022/10/08 11:57:56;;;;;;;;;;;26.10;40.30;;;;;;5049277;28;19931;-90
2022/10/08 12:00:21;;;;;;;;;;;26.30;39.60;;;;;;5047181;28;19939;-89
2022/10/08 12:02:51;;;;;;;;;;;26.60;39.10;;;;;;5053729;28;19909;-89
2022/10/08 12:05:23;;;;;;;;;;;27.00;37.80;;;;;;5056572;28;19919;-91
2022/10/08 12:07:53;;;;;;;;;;;27.30;35.90;;;;;;5035607;28;19963;-89
2022/10/08 12:10:18;;;;;;;;;;;27.60;35.20;;;;;;5056459;28;20341;-91
2022/10/08 12:12:51;;;;;;;;;;;28.00;34.90;;;;;;5059636;28;19944;-92
2022/10/08 12:15:23;;;;;;;;;;;28.40;34.90;;;;;;5033894;28;19913;-90
2022/10/08 12:17:58;;;;;;;;;;;28.80;33.50;;;;;;5034827;28;19932;-91
2022/10/08 12:20:25;;;;;;;;;;;29.20;33.60;;;;;;5052496;28;19917;-90
2022/10/08 12:22:57;;;;;;;;;;;29.70;33.30;;;;;;5054069;28;19923;-88
2022/10/08 12:25:47;;;;;;;;;;;30.00;32.40;;;;;;5033840;28;19920;-87
2022/10/08 12:28:16;;;;;;;;;;;30.20;32.10;;;;;;5048220;28;20291;-89
2022/10/08 12:30:52;;;;;;;;;;;29.80;32.00;;;;;;5050689;28;19927;-90
2022/10/08 12:33:24;;;;;;;;;;;29.20;32.00;;;;;;5053431;28;20376;-90
2022/10/08 12:35:55;;;;;;;;;;;28.70;32.00;;;;;;5051062;28;19924;-90
2022/10/08 12:38:33;;;;;;;;;;;28.70;31.80;;;;;;5030439;28;19923;-90
2022/10/08 12:41:18;;;;;;;;;;;28.80;31.60;;;;;;5050996;28;20029;-88
2022/10/08 12:43:59;;;;;;;;;;;28.90;31.40;;;;;;5028506;28;20357;-89
2022/10/08 12:46:34;;;;;;;;;;;29.10;30.60;;;;;;5033521;28;19913;-89
2022/10/08 12:49:04;;;;;;;;;;;29.10;30.20;;;;;;5029073;28;19913;-89
2022/10/08 12:51:36;;;;;;;;;;;29.00;30.30;;;;;;5048762;28;19932;-88
2022/10/08 12:54:02;;;;;;;;;;;28.50;30.30;;;;;;5048332;28;19966;-89
2022/10/08 12:56:28;;;;;;;;;;;28.00;31.10;;;;;;5035976;28;19917;-89
2022/10/08 12:58:59;;;;;;;;;;;27.40;31.40;;;;;;5046051;28;19917;-90
2022/10/08 13:01:25;;;;;;;;;;;26.90;31.80;;;;;;5030898;28;19928;-89
2022/10/08 13:04:20;;;;;;;;;;;26.50;32.40;;;;;;5048373;28;20344;-90
2022/10/08 13:06:46;;;;;;;;;;;26.10;32.90;;;;;;5024565;28;20674;-89
2022/10/08 13:09:18;;;;;;;;;;;25.80;33.70;;;;;;5043720;28;20439;-91
2022/10/08 13:11:44;;;;;;;;;;;25.50;33.90;;;;;;5051608;28;20024;-88
2022/10/08 13:14:28;;;;;;;;;;;25.30;34.30;;;;;;5035447;28;20788;-88
2022/10/08 13:16:54;;;;;;;;;;;25.20;34.50;;;;;;5054426;28;19924;-88
2022/10/08 13:19:26;;;;;;;;;;;25.00;34.90;;;;;;5047676;28;19916;-88
2022/10/08 13:21:53;;;;;;;;;;;24.80;34.70;;;;;;5034344;28;20011;-90
2022/10/08 13:24:19;;;;;;;;;;;24.80;35.10;;;;;;5033192;28;19916;-91
2022/10/08 13:26:48;;;;;;;;;;;24.70;35.00;;;;;;5034719;28;19941;-89
2022/10/08 13:29:20;;;;;;;;;;;24.60;34.70;;;;;;5030025;28;19968;-88
2022/10/08 13:31:58;;;;;;;;;;;24.60;34.80;;;;;;5031916;28;20351;-90
2022/10/08 13:34:25;;;;;;;;;;;24.40;35.00;;;;;;5046434;28;20290;-90
2022/10/08 13:36:52;;;;;;;;;;;24.30;35.20;;;;;;5049828;28;19921;-88
2022/10/08 13:39:22;;;;;;;;;;;24.20;35.30;;;;;;5026169;28;20275;-88
2022/10/08 13:41:48;;;;;;;;;;;24.10;35.70;;;;;;5031460;28;19921;-92
2022/10/08 13:44:15;;;;;;;;;;;24.00;35.90;;;;;;5029176;28;19952;-88
2022/10/08 13:46:40;;;;;;;;;;;23.80;36.00;;;;;;5050199;28;20019;-90
2022/10/08 13:49:17;;;;;;;;;;;23.80;36.30;;;;;;5031156;28;19948;-89
2022/10/08 13:51:43;;;;;;;;;;;23.70;36.20;;;;;;5046099;28;19967;-88
2022/10/08 13:54:09;;;;;;;;;;;23.50;36.40;;;;;;5046817;28;19952;-87
2022/10/08 13:56:34;;;;;;;;;;;23.50;36.20;;;;;;5043324;28;20019;-88
2022/10/08 13:59:00;;;;;;;;;;;23.40;36.20;;;;;;5049657;28;19916;-89
2022/10/08 14:01:26;;;;;;;;;;;23.40;35.90;;;;;;5047708;28;20333;-87
2022/10/08 14:03:51;;;;;;;;;;;23.50;36.20;;;;;;5048143;28;19917;-93
2022/10/08 14:06:17;;;;;;;;;;;23.60;36.30;;;;;;5053628;28;19928;-90
2022/10/08 14:08:42;;;;;;;;;;;23.80;35.60;;;;;;5049587;28;19928;-88
2022/10/08 14:11:08;;;;;;;;;;;23.70;34.10;;;;;;5031062;28;19932;-90
2022/10/08 14:13:34;;;;;;;;;;;23.40;34.60;;;;;;5047859;28;20415;-90
2022/10/08 14:16:00;;;;;;;;;;;23.10;35.20;;;;;;5029510;28;20011;-91
2022/10/08 14:18:26;;;;;;;;;;;22.80;35.60;;;;;;5029821;28;20020;-90
2022/10/08 14:20:51;;;;;;;;;;;22.60;36.10;;;;;;5052093;28;19924;-88
2022/10/08 14:23:19;;;;;;;;;;;22.30;36.70;;;;;;5058125;28;19916;-88
2022/10/08 14:25:47;;;;;;;;;;;22.20;37.30;;;;;;5056769;28;19921;-89
2022/10/08 14:28:13;;;;;;;;;;;22.20;37.80;;;;;;5035210;28;20440;-91